Weather at Stornara Airfield [CLOSED]

Public forecast

Using degrees Celsius for public forecast. Weather courtesy of forecast.io.

Closest aviation weather report (METAR) to Stornara Airfield

Report is more than 6 hours old.

Closest report is Foggia "Gino Lisa" Airport, 12.6 nm (23.4 km) NW.

2024/07/23 20:50 (retrieved 8 hours ago)

LIBF 232050Z 31007KT CAVOK 28/20 Q1013

Closest aviation forecast (TAF) to Stornara Airfield

Forecast is more than 6 hours old.

Closest forecast is Foggia "Gino Lisa" Airport, 12.6 nm (23.4 km) NW.

2024/07/23 18:00 Ammendment (retrieved 11 hours ago)

TAF AMD LIBF 232106Z 2318/2418 CNL